Time;durP1;ratioP1;P1;durP2;ratioP2;P2;SDS_P1;SDS_P2;PMS_P1;PMS_P2;Temp;Humidity;BMP_temperature;BMP_pressure;BME280_temperature;BME280_humidity;BME280_pressure;Samples;Min_cycle;Max_cycle;Signal;HPM_P1;HPM_P2
2021/12/05 00:18:30;;;;;;;0.00;0.00;;;;;;;6.07;53.59;98825.63;4456454;32;20344;-86
2021/12/05 00:24:00;;;;;;;0.00;0.00;;;;;;;6.07;53.91;98824.78;4446578;32;20261;-91
2021/12/05 00:26:29;;;;;;;0.00;0.00;;;;;;;5.95;53.87;98831.41;4454888;32;20282;-88
2021/12/05 00:34:36;;;;;;;0.00;0.00;;;;;;;5.87;54.18;98838.09;4456476;32;20265;-91
2021/12/05 00:48:19;;;;;;;0.00;0.00;;;;;;;5.46;55.91;98825.31;4449710;32;20277;-90
2021/12/05 00:56:20;;;;;;;0.10;0.10;;;;;;;5.52;55.95;98822.88;4445817;32;20362;-90
2021/12/05 01:01:49;;;;;;;0.20;0.20;;;;;;;5.37;56.40;98835.37;4443856;32;21088;-87
2021/12/05 01:15:05;;;;;;;0.20;0.20;;;;;;;5.60;56.44;98829.00;4454105;32;20290;-93
2021/12/05 01:17:42;;;;;;;0.30;0.30;;;;;;;5.74;56.35;98825.81;4460840;32;20278;-92
2021/12/05 01:20:13;;;;;;;0.10;0.10;;;;;;;5.66;56.68;98822.28;4461134;31;20654;-88
2021/12/05 01:22:50;;;;;;;0.10;0.10;;;;;;;5.74;56.29;98815.56;4459252;32;20370;-92
2021/12/05 01:30:58;;;;;;;0.40;0.40;;;;;;;5.81;56.37;98814.84;4450129;32;20283;-86
2021/12/05 01:33:42;;;;;;;0.50;0.50;;;;;;;5.71;56.75;98808.69;4450576;32;20309;-88
2021/12/05 01:39:08;;;;;;;1.37;1.37;;;;;;;5.57;57.40;98810.13;4453587;32;20364;-87
2021/12/05 02:11:36;;;;;;;0.40;0.40;;;;;;;5.52;59.36;98789.50;4432622;32;20278;-88
2021/12/05 02:36:42;;;;;;;56.30;51.00;;;;;;;5.59;59.04;98764.81;4457061;32;20272;-89
2021/12/05 02:41:22;;;;;;;1.50;1.50;;;;;;;5.68;58.97;98756.38;4445516;32;20361;-86
2021/12/05 02:44:14;;;;;;;2.00;1.90;;;;;;;5.70;59.07;98762.44;4443893;32;20320;-86
2021/12/05 02:46:45;;;;;;;120.45;108.70;;;;;;;5.59;59.24;98755.41;4447151;32;20325;-87
2021/12/05 02:49:15;;;;;;;2.10;2.00;;;;;;;5.77;59.21;98748.84;4443538;32;20267;-89
2021/12/05 02:51:54;;;;;;;1.63;1.53;;;;;;;5.77;58.97;98754.84;4445747;32;20282;-87
2021/12/05 02:54:24;;;;;;;1.20;1.20;;;;;;;5.77;59.33;98754.84;4447110;32;20325;-87
2021/12/05 02:56:52;;;;;;;1.25;1.25;;;;;;;5.98;58.20;98762.09;4443988;32;20358;-87
2021/12/05 03:02:03;;;;;;;1.00;1.00;;;;;;;5.90;58.95;98760.22;4442791;32;20294;-85
2021/12/05 03:04:32;;;;;;;0.70;0.70;;;;;;;6.09;58.00;98761.41;4448290;32;20254;-85
2021/12/05 03:07:05;;;;;;;0.88;0.88;;;;;;;5.68;59.71;98764.09;4444070;32;20321;-87
2021/12/05 03:09:32;;;;;;;0.93;0.93;;;;;;;6.13;57.95;98768.34;4445976;32;20656;-88
2021/12/05 03:12:00;;;;;;;1.02;1.02;;;;;;;6.27;57.57;98766.84;4439790;32;20290;-86
2021/12/05 03:14:29;;;;;;;1.08;1.08;;;;;;;6.33;57.06;98760.97;4449056;32;20277;-89
2021/12/05 03:16:57;;;;;;;1.10;1.10;;;;;;;6.08;58.27;98764.84;4432804;32;20282;-88
2021/12/05 03:19:25;;;;;;;0.77;0.77;;;;;;;6.16;58.14;98765.81;4446401;32;20269;-88
2021/12/05 03:21:53;;;;;;;0.85;0.85;;;;;;;6.23;57.92;98765.09;4447583;32;20329;-88
2021/12/05 03:24:23;;;;;;;0.70;0.70;;;;;;;6.29;57.39;98754.91;4449094;32;20422;-91
2021/12/05 03:26:53;;;;;;;0.70;0.70;;;;;;;5.76;59.14;98749.69;4457259;32;20299;-90
2021/12/05 03:29:21;;;;;;;0.40;0.40;;;;;;;6.31;57.58;98763.50;4438963;32;20712;-89
2021/12/05 03:31:49;;;;;;;0.60;0.60;;;;;;;6.34;57.48;98767.81;4432641;32;20293;-87
2021/12/05 03:34:18;;;;;;;0.77;0.77;;;;;;;6.47;57.03;98775.72;4418606;32;20274;-89
2021/12/05 03:36:48;;;;;;;0.68;0.68;;;;;;;6.44;57.22;98780.81;4433078;32;20275;-88
2021/12/05 03:39:17;;;;;;;0.20;0.20;;;;;;;6.40;57.07;98773.91;4441483;32;20262;-88
2021/12/05 03:41:46;;;;;;;0.20;0.20;;;;;;;6.62;56.33;98769.09;4444960;32;20282;-89
2021/12/05 03:44:16;;;;;;;0.10;0.10;;;;;;;6.67;56.09;98772.63;4444944;32;20258;-91
2021/12/05 03:46:44;;;;;;;0.13;0.13;;;;;;;6.47;56.73;98770.59;4437192;32;20338;-90
2021/12/05 03:49:12;;;;;;;0.20;0.20;;;;;;;6.52;56.74;98763.81;4430786;32;20317;-88
2021/12/05 03:51:44;;;;;;;0.10;0.10;;;;;;;6.62;56.83;98771.66;4436860;32;20289;-92
2021/12/05 03:54:11;;;;;;;0.00;0.00;;;;;;;6.58;56.47;98767.34;4445274;32;20288;-91
2021/12/05 03:56:39;;;;;;;0.00;0.00;;;;;;;6.64;56.52;98757.13;4432660;32;20335;-91
2021/12/05 03:59:06;;;;;;;;;;;;;;;6.69;56.29;98765.75;4436187;32;20226;-92
2021/12/05 04:01:33;;;;;;;;;;;;;;;6.73;55.81;98767.53;4430950;32;20275;-93
2021/12/05 04:04:01;;;;;;;;;;;;;;;6.61;56.50;98762.25;4430443;32;19970;-93
2021/12/05 04:06:28;;;;;;;;;;;;;;;6.75;55.65;98763.28;4457315;32;19981;-93
2021/12/05 04:08:56;;;;;;;;;;;;;;;6.70;56.11;98763.22;4442386;32;20423;-91
2021/12/05 04:11:28;;;;;;;;;;;;;;;6.42;56.96;98772.25;4455275;32;19985;-91
2021/12/05 04:13:56;;;;;;;;;;;;;;;6.55;56.53;98767.28;4440614;32;20000;-90
2021/12/05 04:16:24;;;;;;;;;;;;;;;6.41;56.70;98767.91;4459125;32;20045;-92
2021/12/05 04:18:52;;;;;;;;;;;;;;;6.56;56.37;98758.72;4438597;32;19978;-89
2021/12/05 04:21:19;;;;;;;;;;;;;;;6.37;57.09;98758.44;4413681;32;19982;-91
2021/12/05 04:23:46;;;;;;;;;;;;;;;6.20;57.73;98765.03;4401341;32;20008;-91
2021/12/05 04:26:14;;;;;;;;;;;;;;;6.25;57.68;98768.53;4405133;32;19978;-87
2021/12/05 04:28:42;;;;;;;;;;;;;;;6.13;58.01;98773.50;4414038;32;19989;-91
2021/12/05 04:31:09;;;;;;;;;;;;;;;6.02;58.56;98769.00;4405024;32;20705;-89
2021/12/05 04:33:37;;;;;;;;;;;;;;;5.90;58.48;98768.78;4415018;32;20339;-94
2021/12/05 04:36:05;;;;;;;;;;;;;;;6.09;58.50;98771.69;4415084;32;20821;-92
2021/12/05 04:38:32;;;;;;;;;;;;;;;5.74;59.35;98770.22;4419677;32;20034;-93
2021/12/05 04:40:59;;;;;;;;;;;;;;;6.30;57.87;98777.19;4437366;32;19988;-93
2021/12/05 04:43:26;;;;;;;;;;;;;;;6.22;57.91;98768.47;4429196;32;19978;-89
2021/12/05 04:45:53;;;;;;;;;;;;;;;6.35;57.54;98770.44;4428264;32;20076;-91
2021/12/05 04:48:20;;;;;;;;;;;;;;;6.41;57.45;98770.50;4435349;32;20003;-90
2021/12/05 04:50:47;;;;;;;;;;;;;;;6.42;57.07;98764.53;4432082;32;20053;-87
2021/12/05 04:53:14;;;;;;;;;;;;;;;6.52;56.91;98758.69;4432368;32;19988;-91
2021/12/05 04:55:41;;;;;;;;;;;;;;;6.51;56.96;98756.09;4432312;32;20045;-90
2021/12/05 04:58:09;;;;;;;;;;;;;;;6.42;57.16;98759.37;4433448;32;20067;-91
2021/12/05 05:00:41;;;;;;;;;;;;;;;6.22;57.92;98758.19;4447957;32;19981;-95
2021/12/05 05:03:08;;;;;;;;;;;;;;;5.96;58.70;98761.22;4433991;32;19985;-94
2021/12/05 05:05:36;;;;;;;;;;;;;;;6.03;58.82;98767.31;4435315;32;20044;-93
2021/12/05 05:08:03;;;;;;;;;;;;;;;6.03;58.85;98763.06;4432371;32;20000;-92
2021/12/05 05:10:31;;;;;;;;;;;;;;;6.13;58.55;98758.09;4443622;32;19984;-92
2021/12/05 05:12:58;;;;;;;;;;;;;;;6.02;58.79;98758.75;4434207;32;19981;-90
2021/12/05 05:15:28;;;;;;;;;;;;;;;6.10;58.75;98771.72;4434528;32;20054;-94
2021/12/05 05:17:55;;;;;;;;;;;;;;;6.17;58.46;98771.00;4433713;32;19993;-89
2021/12/05 05:20:28;;;;;;;;;;;;;;;6.05;59.05;98770.78;4436420;32;19985;-93
2021/12/05 05:30:53;;;;;;;;;;;;;;;6.10;58.96;98779.44;4457708;32;19985;-89
2021/12/05 05:51:44;;;;;;;;;;;;;;;6.48;58.14;98771.47;4434251;32;20789;-94
2021/12/05 05:54:11;;;;;;;;;;;;;;;6.51;57.76;98771.53;4446365;32;19983;-86
2021/12/05 05:56:40;;;;;;;;;;;;;;;6.44;58.01;98770.53;4453800;32;19993;-90
2021/12/05 05:59:23;;;;;;;;;;;;;;;6.27;58.60;98766.84;4447214;32;20045;-90
2021/12/05 06:04:17;;;;;;;;;;;;;;;6.35;58.42;98783.28;4417196;32;19974;-86
2021/12/05 06:06:49;;;;;;;;;;;;;;;6.22;58.70;98789.94;4401330;32;20012;-87
2021/12/05 06:09:16;;;;;;;;;;;;;;;6.22;59.31;98786.47;4399683;32;19973;-87
2021/12/05 06:11:43;;;;;;;;;;;;;;;6.12;59.61;98798.28;4387264;32;19990;-87
2021/12/05 06:14:10;;;;;;;;;;;;;;;6.24;59.04;98792.50;4401510;32;19978;-87
2021/12/05 06:16:37;;;;;;;;;;;;;;;6.41;58.53;98785.91;4404658;32;20114;-87
2021/12/05 06:19:04;;;;;;;;;;;;;;;6.40;58.49;98789.34;4400897;32;19989;-88
2021/12/05 06:21:30;;;;;;;;;;;;;;;6.49;58.24;98793.75;4412196;32;19986;-91
2021/12/05 06:23:57;;;;;;;;;;;;;;;6.48;58.25;98798.03;4402241;32;20818;-90
2021/12/05 06:26:24;;;;;;;;;;;;;;;6.27;58.77;98803.69;4388794;32;19997;-91
2021/12/05 06:29:08;;;;;;;;;;;;;;;6.50;58.35;98805.75;4416576;32;20042;-92
2021/12/05 06:37:27;;;;;;;;;;;;;;;6.53;58.20;98805.81;4415041;32;19989;-91
2021/12/05 06:40:17;;;;;;;;;;;;;;;6.40;59.07;98802.19;4412350;32;20031;-90
2021/12/05 06:48:00;;;;;;;;;;;;;;;6.53;58.68;98791.25;4449044;32;19992;-82
2021/12/05 06:50:26;;;;;;;;;;;;;;;6.38;59.33;98796.19;4441841;32;19997;-90
2021/12/05 06:52:53;;;;;;;;;;;;;;;6.42;59.41;98810.78;4440377;32;20042;-93
2021/12/05 06:55:20;;;;;;;;;;;;;;;6.50;58.91;98806.63;4441017;32;19973;-87
2021/12/05 06:57:47;;;;;;;;;;;;;;;6.58;58.63;98816.19;4431137;32;19977;-89
2021/12/05 07:00:20;;;;;;;;;;;;;;;6.62;58.23;98816.25;4433060;32;19989;-90
2021/12/05 07:02:47;;;;;;;;;;;;;;;6.64;58.21;98818.84;4413385;32;19996;-94
2021/12/05 07:05:51;;;;;;;;;;;;;;;6.61;58.44;98823.94;4420968;32;19981;-93
2021/12/05 07:08:09;;;;;;;;;;;;;;;6.48;59.01;98834.03;4432641;32;19985;-87
2021/12/05 07:10:48;;;;;;;;;;;;;;;6.51;59.14;98828.94;4428468;32;19981;-88
2021/12/05 07:16:02;;;;;;;;;;;;;;;6.72;58.22;98827.53;4420017;32;20013;-84
2021/12/05 07:42:45;;;;;;;;;;;;;;;6.49;59.80;98840.91;4409277;32;19990;-94
2021/12/05 07:45:17;;;;;;;;;;;;;;;6.71;58.58;98851.53;4414000;32;19994;-91
2021/12/05 07:47:44;;;;;;;;;;;;;;;6.58;59.11;98844.47;4439216;32;20036;-90
2021/12/05 07:50:12;;;;;;;;;;;;;;;6.73;58.69;98852.41;4422504;32;20047;-95
2021/12/05 07:52:47;;;;;;;;;;;;;;;6.59;59.63;98846.19;4415091;32;19989;-92
2021/12/05 07:55:30;;;;;;;;;;;;;;;6.66;59.42;98851.44;4383552;32;19985;-86
2021/12/05 07:58:19;;;;;;;;;;;;;;;6.82;58.67;98849.97;4402719;32;19982;-85
2021/12/05 08:00:59;;;;;;;;;;;;;;;6.85;58.26;98860.31;4425395;32;20040;-84
2021/12/05 08:14:39;;;;;;;;;;;;;;;7.17;57.20;98853.03;4418603;32;20020;-91
2021/12/05 08:17:13;;;;;;;;;;;;;;;7.15;57.40;98848.75;4415083;32;20001;-85
2021/12/05 08:19:40;;;;;;;;;;;;;;;7.05;58.10;98862.28;4418688;32;19958;-81
2021/12/05 08:22:07;;;;;;;;;;;;;;;7.16;57.74;98855.59;4417957;32;19986;-87
2021/12/05 08:24:37;;;;;;;;;;;;;;;7.01;58.36;98860.53;4405896;32;20001;-88
2021/12/05 08:27:05;;;;;;;;;;;;;;;7.29;57.13;98849.78;4424327;32;19985;-86
2021/12/05 08:29:46;;;;;;;;;;;;;;;7.24;57.38;98854.00;4408123;32;20011;-84
2021/12/05 08:34:53;;;;;;;;;;;;;;;6.98;58.71;98862.22;4425350;32;20013;-83
2021/12/05 08:42:38;;;;;;;;;;;;;;;7.21;57.46;98856.53;4407635;32;20009;-80
2021/12/05 08:45:41;;;;;;;;;;;;;;;7.23;57.52;98852.28;4420601;32;19978;-83
2021/12/05 10:15:27;;;;;;;;;;;;;;;7.66;57.60;98801.31;4432584;32;19989;-82
2021/12/05 10:37:04;;;;;;;;;;;;;;;7.43;57.47;98799.34;4432719;32;20848;-86
2021/12/05 10:39:31;;;;;;;;;;;;;;;7.23;58.94;98790.50;4430140;32;19991;-85
2021/12/05 10:42:11;;;;;;;;;;;;;;;7.38;58.97;98815.56;4452222;32;19984;-85
2021/12/05 10:44:43;;;;;;;;;;;;;;;7.42;58.61;98797.59;4446356;32;20032;-85
2021/12/05 10:47:10;;;;;;;;;;;;;;;7.61;57.35;98797.81;4452581;32;19993;-87
2021/12/05 10:49:37;;;;;;;;;;;;;;;7.39;58.27;98789.84;4445945;32;20064;-88
2021/12/05 10:52:05;;;;;;;;;;;;;;;7.48;57.42;98786.50;4417988;32;20085;-86
2021/12/05 10:54:32;;;;;;;;;;;;;;;7.65;56.96;98790.13;4418781;32;19982;-85
2021/12/05 10:57:00;;;;;;;;;;;;;;;7.63;57.34;98790.97;4385951;32;20032;-86
2021/12/05 10:59:35;;;;;;;;;;;;;;;7.54;57.67;98786.59;4373549;32;20045;-84
2021/12/05 11:02:11;;;;;;;;;;;;;;;7.64;57.56;98790.97;4370395;32;19999;-85
2021/12/05 11:04:39;;;;;;;;;;;;;;;7.71;57.02;98789.34;4400512;32;20031;-88
2021/12/05 11:07:07;;;;;;;;;;;;;;;7.72;57.59;98785.91;4397607;32;20504;-85
2021/12/05 11:09:39;;;;;;;;;;;;;;;7.69;57.78;98775.59;4382998;32;19994;-85
2021/12/05 11:12:14;;;;;;;;;;;;;;;7.79;57.37;98776.56;4377980;32;19991;-87
2021/12/05 11:14:42;;;;;;;;;;;;;;;7.68;57.50;98773.84;4385569;32;19990;-83
2021/12/05 11:17:11;;;;;;;;;;;;;;;7.72;57.28;98774.72;4391171;32;20001;-86
2021/12/05 11:19:46;;;;;;;;;;;;;;;7.77;57.31;98776.50;4394500;32;20024;-86
2021/12/05 11:22:18;;;;;;;;;;;;;;;7.56;58.23;98769.44;4385335;32;20028;-84
2021/12/05 11:24:52;;;;;;;;;;;;;;;7.66;57.48;98780.72;4373372;32;19982;-84
2021/12/05 11:27:19;;;;;;;;;;;;;;;7.72;57.75;98791.03;4385084;32;19990;-85
2021/12/05 11:30:03;;;;;;;;;;;;;;;7.52;58.55;98785.69;4399342;32;20035;-84
2021/12/05 11:32:37;;;;;;;;;;;;;;;7.80;57.46;98779.13;4387325;32;20279;-84
2021/12/05 11:35:16;;;;;;;;;;;;;;;7.84;56.75;98765.41;4397416;32;20391;-84
2021/12/05 11:38:07;;;;;;;;;;;;;;;7.75;57.04;98767.91;4400206;32;20025;-83
2021/12/05 11:40:52;;;;;;;;;;;;;;;7.54;57.57;98775.41;4378661;32;19993;-84
2021/12/05 11:43:39;;;;;;;;;;;;;;;7.33;58.10;98776.88;4399616;32;20051;-82
2021/12/05 11:46:08;;;;;;;;;;;;;;;6.96;58.75;98781.59;4410855;32;19998;-89
2021/12/05 11:48:55;;;;;;;;;;;;;;;7.34;58.28;98778.62;4413769;32;20003;-82
2021/12/05 11:51:21;;;;;;;;;;;;;;;7.08;58.96;98785.16;4413655;32;20725;-84
2021/12/05 11:53:51;;;;;;;;;;;;;;;7.18;58.93;98779.31;4414811;32;20049;-87
2021/12/05 11:56:22;;;;;;;;;;;;;;;7.19;59.06;98768.16;4387995;32;20919;-84
2021/12/05 11:59:10;;;;;;;;;;;;;;;7.15;58.89;98772.41;4398381;32;20079;-84
2021/12/05 12:01:40;;;;;;;;;;;;;;;7.09;59.19;98777.47;4400364;32;19973;-81
2021/12/05 12:04:08;;;;;;;;;;;;;;;7.17;59.36;98774.97;4392032;32;20026;-83
2021/12/05 12:06:36;;;;;;;;;;;;;;;7.11;58.96;98765.47;4436067;32;20012;-83
2021/12/05 12:09:03;;;;;;;;;;;;;;;7.33;58.37;98761.44;4429060;32;20007;-81
2021/12/05 12:11:31;;;;;;;;;;;;;;;7.35;58.35;98764.91;4436427;32;19978;-81
2021/12/05 12:13:58;;;;;;;;;;;;;;;7.24;58.26;98771.63;4431279;32;20020;-81
2021/12/05 12:16:24;;;;;;;;;;;;;;;7.14;58.67;98785.22;4433376;32;20020;-82
2021/12/05 12:18:52;;;;;;;;;;;;;;;7.25;58.19;98783.66;4440446;32;20008;-83
2021/12/05 12:21:26;;;;;;;;;;;;;;;7.17;58.59;98791.28;4436501;32;19999;-83
2021/12/05 12:23:55;;;;;;;;;;;;;;;7.10;58.93;98788.63;4419228;32;20038;-80
2021/12/05 12:26:22;;;;;;;;;;;;;;;6.97;59.35;98775.59;4432648;32;19985;-81
2021/12/05 12:28:49;;;;;;;;;;;;;;;6.84;59.40;98784.00;4427105;32;19986;-81
2021/12/05 12:31:21;;;;;;;;;;;;;;;6.84;59.49;98786.56;4427035;32;20042;-81
2021/12/05 12:33:50;;;;;;;;;;;;;;;6.86;59.60;98784.00;4425984;32;20002;-85
2021/12/05 12:36:29;;;;;;;;;;;;;;;6.84;59.66;98771.12;4414266;32;20384;-82
2021/12/05 12:38:56;;;;;;;;;;;;;;;6.81;59.96;98760.81;4427650;32;20003;-82
2021/12/05 12:41:23;;;;;;;;;;;;;;;6.86;59.62;98754.03;4427672;32;19978;-84
2021/12/05 12:43:52;;;;;;;;;;;;;;;6.97;59.57;98765.28;4435007;32;20054;-84
2021/12/05 12:46:31;;;;;;;;;;;;;;;7.14;59.07;98754.34;4443077;32;19981;-84
2021/12/05 12:49:20;;;;;;;;;;;;;;;7.13;58.91;98757.78;4412053;32;20001;-82
2021/12/05 12:51:49;;;;;;;;;;;;;;;7.20;58.90;98759.56;4392721;32;20452;-85
2021/12/05 12:54:24;;;;;;;;;;;;;;;7.07;59.76;98775.72;4434086;32;20031;-84
2021/12/05 12:57:14;;;;;;;;;;;;;;;7.19;59.34;98768.16;4452179;32;21057;-86
2021/12/05 12:59:42;;;;;;;;;;;;;;;7.35;58.80;98764.06;4425063;32;19993;-84
2021/12/05 13:02:27;;;;;;;;;;;;;;;7.38;58.37;98759.81;4430482;32;19965;-81
2021/12/05 13:05:35;;;;;;;;;;;;;;;7.34;58.53;98755.47;4423679;32;20006;-82
2021/12/05 13:11:02;;;;;;;;;;;;;;;7.24;58.95;98740.75;4398740;32;19997;-83
2021/12/05 13:13:31;;;;;;;;;;;;;;;7.36;58.29;98750.31;4403961;32;19998;-81
2021/12/05 13:16:09;;;;;;;;;;;;;;;7.13;58.94;98748.34;4432827;32;20302;-82
2021/12/05 13:18:36;;;;;;;;;;;;;;;7.25;58.72;98741.63;4426741;32;20535;-83
2021/12/05 13:21:08;;;;;;;;;;;;;;;7.30;58.64;98735.66;3806953;32;20002843;-82
2021/12/05 13:23:43;;;;;;;;;;;;;;;7.35;58.36;98743.47;4394581;32;20391;-82
2021/12/05 13:26:10;;;;;;;;;;;;;;;7.32;58.27;98723.69;4396109;32;19994;-83
2021/12/05 13:28:42;;;;;;;;;;;;;;;7.24;58.48;98720.16;4391899;32;20125;-82
2021/12/05 13:31:30;;;;;;;;;;;;;;;7.22;58.52;98711.56;4390431;32;20009;-82
2021/12/05 13:34:17;;;;;;;;;;;;;;;6.99;59.12;98709.59;4384720;32;20045;-82
2021/12/05 13:36:50;;;;;;;;;;;;;;;6.63;61.05;98703.97;4381994;32;20666;-84
2021/12/05 13:39:34;;;;;;;;;;;;;;;6.67;61.44;98687.75;4384056;32;19987;-84
2021/12/05 13:42:04;;;;;;;;;;;;;;;6.91;60.28;98680.31;4385935;32;19971;-84
2021/12/05 13:45:04;;;;;;;;;;;;;;;7.07;60.25;98686.50;4389494;32;20796;-83
2021/12/05 13:47:41;;;;;;;;;;;;;;;7.48;59.05;98677.50;4373027;32;19983;-82
2021/12/05 13:50:18;;;;;;;;;;;;;;;7.45;59.09;98684.34;4376798;32;19975;-81
2021/12/05 13:52:48;;;;;;;;;;;;;;;7.41;59.51;98692.91;4387586;32;20025;-81
2021/12/05 13:55:34;;;;;;;;;;;;;;;7.58;58.15;98705.06;4399447;32;20006;-81
2021/12/05 13:58:13;;;;;;;;;;;;;;;7.28;58.75;98714.22;4383782;32;19998;-82
2021/12/05 14:00:41;;;;;;;;;;;;;;;6.79;59.76;98716.19;4383526;32;20489;-81
2021/12/05 14:03:08;;;;;;;;;;;;;;;6.80;60.46;98717.94;4383810;32;19967;-81
2021/12/05 14:05:36;;;;;;;;;;;;;;;7.09;59.53;98725.16;4385770;32;20358;-81
2021/12/05 14:08:02;;;;;;;;;;;;;;;7.06;59.60;98722.53;4376589;32;19990;-83
2021/12/05 14:10:45;;;;;;;;;;;;;;;6.97;59.50;98728.44;4378620;32;19986;-82
2021/12/05 14:13:12;;;;;;;;;;;;;;;6.72;60.46;98745.25;4387089;32;20018;-83
2021/12/05 14:15:40;;;;;;;;;;;;;;;6.15;62.66;98736.69;4376902;32;19998;-84
2021/12/05 14:18:06;;;;;;;;;;;;;;;6.68;60.89;98734.06;4378998;32;19982;-83
2021/12/05 14:20:33;;;;;;;;;;;;;;;6.61;61.13;98736.53;4393483;32;19994;-86
2021/12/05 14:23:04;;;;;;;;;;;;;;;6.50;61.51;98731.22;4397680;32;20016;-85
2021/12/05 14:25:32;;;;;;;;;;;;;;;6.73;60.57;98731.53;4396299;32;19997;-82
2021/12/05 14:28:02;;;;;;;;;;;;;;;6.47;61.42;98729.47;4398644;32;19982;-85
2021/12/05 14:30:30;;;;;;;;;;;;;;;6.37;62.46;98743.03;4364421;32;20025;-86
2021/12/05 14:33:02;;;;;;;;;;;;;;;6.64;61.04;98739.16;4357673;32;19990;-85
2021/12/05 14:35:36;;;;;;;;;;;;;;;6.71;60.75;98748.66;4382942;32;20006;-82
2021/12/05 14:38:06;;;;;;;;;;;;;;;6.72;61.26;98755.53;4391628;32;20002;-80
2021/12/05 14:40:33;;;;;;;;;;;;;;;6.87;60.53;98760.88;4358223;32;20513;-82
2021/12/05 14:43:04;;;;;;;;;;;;;;;6.97;60.23;98747.28;4376821;32;20021;-80
2021/12/05 14:45:31;;;;;;;;;;;;;;;6.96;60.16;98755.00;4429847;32;20555;-83
2021/12/05 14:48:02;;;;;;;;;;;;;;;7.07;59.87;98757.69;4437012;32;19996;-86
2021/12/05 14:50:45;;;;;;;;;;;;;;;7.01;60.11;98757.63;4417313;32;19989;-81
2021/12/05 14:53:13;;;;;;;;;;;;;;;6.89;60.55;98753.16;4428419;32;19973;-81
2021/12/05 14:55:41;;;;;;;;;;;;;;;6.85;60.43;98747.12;4419051;32;19981;-87
2021/12/05 14:58:08;;;;;;;;;;;;;;;6.88;60.44;98752.31;4424163;32;20036;-82
2021/12/05 15:00:40;;;;;;;;;;;;;;;6.71;60.94;98749.53;4399860;32;19994;-80
2021/12/05 15:03:09;;;;;;;;;;;;;;;6.70;61.15;98752.06;4435134;32;19973;-75
2021/12/05 15:05:37;;;;;;;;;;;;;;;6.72;61.32;98755.53;4414415;32;20030;-79
2021/12/05 15:08:06;;;;;;;;;;;;;;;6.68;61.32;98748.63;4428468;32;20032;-80
2021/12/05 15:10:33;;;;;;;;;;;;;;;6.83;61.02;98751.41;4429143;32;19997;-78
2021/12/05 15:13:01;;;;;;;;;;;;;;;6.68;61.55;98753.75;4418614;32;20307;-81
2021/12/05 15:15:27;;;;;;;;;;;;;;;6.80;61.35;98759.09;4416110;32;19997;-78
2021/12/05 15:17:55;;;;;;;;;;;;;;;6.86;60.74;98754.03;4435810;32;20030;-77
2021/12/05 15:20:27;;;;;;;;;;;;;;;6.95;60.31;98746.41;4426675;32;20040;-76
2021/12/05 15:22:55;;;;;;;;;;;;;;;6.82;61.13;98747.09;4414969;32;19993;-79
2021/12/05 15:25:23;;;;;;;;;;;;;;;6.54;61.85;98740.72;4416414;32;20356;-79
2021/12/05 15:27:50;;;;;;;;;;;;;;;6.81;61.04;98750.50;4416802;32;19993;-81
2021/12/05 15:30:19;;;;;;;;;;;;;;;6.69;61.27;98750.34;4413302;32;19978;-81
2021/12/05 15:32:49;;;;;;;;;;;;;;;6.78;61.14;98735.03;4401460;32;19985;-81
2021/12/05 15:35:16;;;;;;;;;;;;;;;6.82;61.00;98723.06;4416093;32;20854;-81
2021/12/05 15:37:54;;;;;;;;;;;;;;;7.07;59.97;98731.97;4400894;32;20046;-80
2021/12/05 15:40:21;;;;;;;;;;;;;;;6.78;60.92;98734.19;4416207;32;20080;-82
2021/12/05 15:42:49;;;;;;;;;;;;;;;6.70;61.33;98736.63;4414621;32;20039;-79
2021/12/05 15:45:17;;;;;;;;;;;;;;;6.75;61.33;98735.84;4425910;32;20031;-81
2021/12/05 15:47:46;;;;;;;;;;;;;;;6.66;61.30;98732.28;4421496;32;20005;-81
2021/12/05 15:50:14;;;;;;;;;;;;;;;6.57;61.58;98739.88;4427551;32;19973;-79
2021/12/05 15:52:42;;;;;;;;;;;;;;;6.31;62.64;98737.78;4428283;32;19981;-80
2021/12/05 15:55:19;;;;;;;;;;;;;;;6.31;62.61;98742.94;4415794;32;20027;-79
2021/12/05 15:57:48;;;;;;;;;;;;;;;6.12;63.22;98739.19;4431338;32;20409;-81
2021/12/05 16:00:19;;;;;;;;;;;;;;;6.18;63.42;98741.00;4413835;32;20109;-79
2021/12/05 16:02:47;;;;;;;;;;;;;;;6.33;62.98;98746.41;4434552;32;19988;-82
2021/12/05 16:05:15;;;;;;;;;;;;;;;6.21;63.28;98748.78;4425594;32;19981;-79
2021/12/05 16:07:42;;;;;;;;;;;;;;;6.17;63.73;98755.56;4433102;32;20015;-79
2021/12/05 16:10:11;;;;;;;;;;;;;;;6.20;63.44;98765.03;4426316;32;20042;-79
2021/12/05 16:12:39;;;;;;;;;;;;;;;6.27;63.28;98766.84;4432776;32;20820;-80
2021/12/05 16:15:06;;;;;;;;;;;;;;;6.41;62.90;98755.06;4428118;32;20295;-80
2021/12/05 16:17:33;;;;;;;;;;;;;;;6.38;63.17;98739.62;4425523;32;19982;-80
2021/12/05 16:20:03;;;;;;;;;;;;;;;6.58;62.04;98751.91;4427934;32;19989;-81
2021/12/05 16:22:53;;;;;;;;;;;;;;;6.48;62.61;98762.06;4423079;32;19991;-80
2021/12/05 16:25:23;;;;;;;;;;;;;;;6.67;62.09;98764.91;4434882;32;20036;-80
2021/12/05 16:27:55;;;;;;;;;;;;;;;6.81;61.67;98771.09;4434142;32;20231;-79
2021/12/05 16:30:34;;;;;;;;;;;;;;;6.75;61.50;98776.16;4434827;32;19977;-81
2021/12/05 16:33:02;;;;;;;;;;;;;;;6.72;61.95;98781.25;4427947;32;20306;-80
2021/12/05 16:35:48;;;;;;;;;;;;;;;6.81;61.90;98801.94;4429329;32;20000;-80
2021/12/05 16:38:21;;;;;;;;;;;;;;;6.62;61.69;98810.25;4439061;32;20016;-81
2021/12/05 16:41:07;;;;;;;;;;;;;;;6.53;62.65;98816.09;4428003;32;19986;-82
2021/12/05 16:43:35;;;;;;;;;;;;;;;6.94;61.27;98798.69;4434107;32;19982;-79
2021/12/05 16:46:13;;;;;;;;;;;;;;;7.05;60.79;98779.97;4427794;32;20004;-80
2021/12/05 16:48:40;;;;;;;;;;;;;;;6.91;61.57;98788.38;4431619;32;20849;-80
2021/12/05 16:51:15;;;;;;;;;;;;;;;7.08;60.54;98786.00;4432201;32;19982;-80
2021/12/05 16:53:46;;;;;;;;;;;;;;;7.09;60.51;98786.91;4430191;32;20331;-80
2021/12/05 16:56:18;;;;;;;;;;;;;;;7.24;60.28;98787.06;4429484;32;19985;-80
2021/12/05 16:58:44;;;;;;;;;;;;;;;7.03;61.07;98797.13;4428400;32;20352;-80
2021/12/05 17:01:14;;;;;;;;;;;;;;;7.06;60.85;98797.16;4429960;32;20001;-81
2021/12/05 17:03:42;;;;;;;;;;;;;;;7.18;60.62;98798.19;4436409;32;20277;-80
2021/12/05 17:06:11;;;;;;;;;;;;;;;7.42;59.75;98791.59;4436039;32;19998;-81
2021/12/05 17:08:45;;;;;;;;;;;;;;;7.22;60.21;98789.63;4438536;32;20880;-81
2021/12/05 17:11:16;;;;;;;;;;;;;;;7.05;61.31;98800.53;4431246;32;20354;-82
2021/12/05 17:13:45;;;;;;;;;;;;;;;7.12;61.48;98817.81;4437788;32;19995;-81
2021/12/05 17:16:14;;;;;;;;;;;;;;;7.18;61.13;98815.34;4438247;32;20018;-81
2021/12/05 17:18:43;;;;;;;;;;;;;;;7.01;61.69;98819.37;4436440;32;20036;-79
2021/12/05 17:21:18;;;;;;;;;;;;;;;7.06;61.58;98828.88;4434401;32;20007;-81
2021/12/05 17:23:47;;;;;;;;;;;;;;;7.19;61.54;98830.78;4431086;32;19988;-80
2021/12/05 17:26:14;;;;;;;;;;;;;;;7.24;61.23;98825.69;4427647;32;20036;-82
2021/12/05 17:28:43;;;;;;;;;;;;;;;7.39;60.60;98818.16;4430231;32;20344;-84
2021/12/05 17:31:10;;;;;;;;;;;;;;;7.17;61.39;98826.44;4436731;32;19989;-80
2021/12/05 17:33:50;;;;;;;;;;;;;;;7.41;60.85;98821.63;4429134;32;20762;-79
2021/12/05 17:36:22;;;;;;;;;;;;;;;7.27;61.14;98825.72;4439155;32;20029;-80
2021/12/05 17:38:50;;;;;;;;;;;;;;;7.42;60.56;98823.34;4431710;32;20082;-80
2021/12/05 17:41:17;;;;;;;;;;;;;;;7.34;60.73;98824.97;4445598;32;20040;-79
2021/12/05 17:43:44;;;;;;;;;;;;;;;7.44;60.56;98821.66;4437778;32;19973;-77
2021/12/05 17:46:12;;;;;;;;;;;;;;;7.34;60.74;98830.13;4429116;32;19973;-80
2021/12/05 17:48:39;;;;;;;;;;;;;;;7.59;59.78;98830.41;4439907;32;19954;-80
2021/12/05 17:51:07;;;;;;;;;;;;;;;7.39;60.23;98833.59;4420689;32;20052;-80
2021/12/05 17:53:36;;;;;;;;;;;;;;;7.36;60.54;98833.56;4433127;32;19969;-78
2021/12/05 17:56:12;;;;;;;;;;;;;;;7.33;60.41;98837.81;4437877;32;20000;-81
2021/12/05 18:03:56;;;;;;;;;;;;;;;7.34;60.21;98832.69;4430664;32;19970;-81
2021/12/05 18:06:23;;;;;;;;;;;;;;;7.57;59.58;98826.97;4430997;32;20038;-81
2021/12/05 18:08:50;;;;;;;;;;;;;;;7.67;59.50;98826.22;4431471;32;19995;-81
2021/12/05 18:11:22;;;;;;;;;;;;;;;7.48;59.98;98821.69;4433679;32;19986;-81
2021/12/05 18:13:53;;;;;;;;;;;;;;;7.54;59.98;98816.62;4436118;32;19996;-81
2021/12/05 18:16:25;;;;;;;;;;;;;;;7.56;59.87;98815.81;4436933;32;19970;-82
2021/12/05 18:19:04;;;;;;;;;;;;;;;7.59;59.53;98820.09;4433659;32;20333;-83
2021/12/05 18:21:31;;;;;;;;;;;;;;;7.43;60.23;98819.94;4433028;32;20277;-82
2021/12/05 18:23:58;;;;;;;;;;;;;;;7.45;60.22;98813.09;4430991;32;19992;-84
2021/12/05 18:26:25;;;;;;;;;;;;;;;7.59;59.66;98810.66;4430507;32;19986;-84
2021/12/05 18:28:52;;;;;;;;;;;;;;;7.55;59.91;98802.88;4437973;32;19981;-82